createdAt,value
2023-05-18T00:00:05.603Z,18.34
2023-05-18T00:00:37.041Z,18.34
2023-05-18T00:01:08.476Z,18.33
2023-05-18T00:01:39.972Z,18.34
2023-05-18T00:02:11.481Z,18.32
2023-05-18T00:02:43.018Z,18.33
2023-05-18T00:03:14.713Z,18.32
2023-05-18T00:03:46.302Z,18.32
2023-05-18T00:04:17.808Z,18.33
2023-05-18T00:04:49.271Z,18.32
2023-05-18T00:05:20.775Z,18.30
2023-05-18T00:05:52.204Z,18.29
2023-05-18T00:06:23.889Z,18.31
2023-05-18T00:06:55.318Z,18.30
2023-05-18T00:07:26.754Z,18.29
2023-05-18T00:07:58.204Z,18.30
2023-05-18T00:08:29.640Z,18.29
2023-05-18T00:09:01.079Z,18.27
2023-05-18T00:09:32.511Z,18.27
2023-05-18T00:10:04.046Z,18.27
2023-05-18T00:10:35.603Z,18.26
2023-05-18T00:11:07.094Z,18.27
2023-05-18T00:11:38.539Z,18.26
2023-05-18T00:12:09.995Z,18.26
2023-05-18T00:12:41.476Z,18.25
2023-05-18T00:13:12.919Z,18.26
2023-05-18T00:13:44.359Z,18.25
2023-05-18T00:14:15.801Z,18.24
2023-05-18T00:14:47.244Z,18.24
2023-05-18T00:15:18.772Z,18.24
2023-05-18T00:15:50.209Z,18.24
2023-05-18T00:16:21.709Z,18.23
2023-05-18T00:16:53.189Z,18.23
2023-05-18T00:17:24.669Z,18.24
2023-05-18T00:17:56.187Z,18.23
2023-05-18T00:18:27.659Z,18.23
2023-05-18T00:18:59.138Z,18.22
2023-05-18T00:19:30.619Z,18.21
2023-05-18T00:20:02.102Z,18.22
2023-05-18T00:20:33.577Z,18.21
2023-05-18T00:21:05.004Z,18.22
2023-05-18T00:21:36.442Z,18.22
2023-05-18T00:22:07.994Z,18.21
2023-05-18T00:22:39.495Z,18.20
2023-05-18T00:23:10.949Z,18.19
2023-05-18T00:23:42.382Z,18.20
2023-05-18T00:24:13.809Z,18.19
2023-05-18T00:24:45.245Z,18.17
2023-05-18T00:25:16.678Z,18.16
2023-05-18T00:25:48.155Z,18.17
2023-05-18T00:26:19.587Z,18.16
2023-05-18T00:26:51.034Z,18.16
2023-05-18T00:27:22.474Z,18.15
2023-05-18T00:27:53.931Z,18.16
2023-05-18T00:28:25.370Z,18.15
2023-05-18T00:28:56.820Z,18.16
2023-05-18T00:29:28.254Z,18.15
2023-05-18T00:29:59.689Z,18.14
2023-05-18T00:30:31.119Z,18.15
2023-05-18T00:31:02.571Z,18.14
2023-05-18T00:31:34.025Z,18.12
2023-05-18T00:32:05.528Z,18.12
2023-05-18T00:32:37.070Z,18.13
2023-05-18T00:33:08.706Z,18.12
2023-05-18T00:33:40.183Z,18.11
2023-05-18T00:34:11.617Z,18.12
2023-05-18T00:34:43.057Z,18.12
2023-05-18T00:35:14.505Z,18.09
2023-05-18T00:35:45.965Z,18.11
2023-05-18T00:36:17.425Z,18.11
2023-05-18T00:36:48.873Z,18.10
2023-05-18T00:37:20.306Z,18.09
2023-05-18T00:37:51.741Z,18.09
2023-05-18T00:38:23.184Z,18.09
2023-05-18T00:38:54.657Z,18.09
2023-05-18T00:39:26.085Z,18.09
2023-05-18T00:39:57.548Z,18.08
2023-05-18T00:40:29.020Z,18.08
2023-05-18T00:41:00.478Z,18.08
2023-05-18T00:41:31.910Z,18.06
2023-05-18T00:42:03.338Z,18.06
2023-05-18T00:42:34.812Z,18.06
2023-05-18T00:43:06.262Z,18.06
2023-05-18T00:43:37.706Z,18.06
2023-05-18T00:44:09.156Z,18.05
2023-05-18T00:44:40.594Z,18.06
2023-05-18T00:45:12.044Z,18.05
2023-05-18T00:45:43.522Z,18.07
2023-05-18T00:46:15.005Z,18.06
2023-05-18T00:46:46.467Z,18.04
2023-05-18T00:47:17.928Z,18.04
2023-05-18T00:47:49.417Z,18.05
2023-05-18T00:48:20.936Z,18.04
2023-05-18T00:48:52.434Z,18.03
2023-05-18T00:49:23.900Z,18.03
2023-05-18T00:49:55.339Z,18.05
2023-05-18T00:50:26.785Z,18.04
2023-05-18T00:50:58.213Z,18.03
2023-05-18T00:51:29.643Z,18.03
2023-05-18T00:52:01.109Z,18.03
2023-05-18T00:52:32.563Z,18.01
2023-05-18T00:53:04.012Z,18.01
2023-05-18T00:53:35.441Z,18.01
2023-05-18T00:54:06.870Z,18.01
2023-05-18T00:54:38.340Z,18.01
2023-05-18T00:55:09.781Z,18.01
2023-05-18T00:55:41.322Z,18.01
2023-05-18T00:56:12.800Z,17.99
2023-05-18T00:56:44.237Z,18.00
2023-05-18T00:57:15.724Z,17.99
2023-05-18T00:57:47.160Z,17.98
2023-05-18T00:58:18.680Z,17.98
2023-05-18T00:58:50.124Z,17.98
2023-05-18T00:59:21.572Z,17.98
2023-05-18T00:59:53.023Z,17.98
2023-05-18T01:00:24.594Z,17.99
2023-05-18T01:00:56.133Z,17.98
2023-05-18T01:01:27.674Z,17.98
2023-05-18T01:01:59.337Z,17.96
2023-05-18T01:02:30.939Z,17.97
2023-05-18T01:03:02.504Z,17.97
2023-05-18T01:03:34.020Z,17.96
2023-05-18T01:04:05.497Z,17.97
2023-05-18T01:04:36.940Z,17.97
2023-05-18T01:05:08.395Z,17.96
2023-05-18T01:05:39.822Z,17.96
2023-05-18T01:06:11.258Z,17.96
2023-05-18T01:06:42.747Z,17.96
2023-05-18T01:07:14.185Z,17.94
2023-05-18T01:07:45.632Z,17.94
2023-05-18T01:08:17.076Z,17.94
2023-05-18T01:08:48.535Z,17.94
2023-05-18T01:09:19.995Z,17.94
2023-05-18T01:09:51.431Z,17.94
2023-05-18T01:10:22.920Z,17.94
2023-05-18T01:10:54.375Z,17.95
2023-05-18T01:11:25.862Z,17.94
2023-05-18T01:11:57.368Z,17.94
2023-05-18T01:12:28.821Z,17.94
2023-05-18T01:13:00.249Z,17.94
2023-05-18T01:13:31.688Z,17.94
2023-05-18T01:14:03.136Z,17.93
2023-05-18T01:14:34.570Z,17.94
2023-05-18T01:15:05.990Z,17.94
2023-05-18T01:15:37.482Z,17.94
2023-05-18T01:16:08.920Z,17.92
2023-05-18T01:16:40.407Z,17.92
2023-05-18T01:17:12.053Z,17.93
2023-05-18T01:17:43.666Z,17.91
2023-05-18T01:18:15.188Z,17.91
2023-05-18T01:18:46.721Z,17.92
2023-05-18T01:19:18.294Z,17.91
2023-05-18T01:19:49.825Z,17.90
2023-05-18T01:20:21.276Z,17.90
2023-05-18T01:20:52.715Z,17.90
2023-05-18T01:21:24.147Z,17.89
2023-05-18T01:21:55.601Z,17.89
2023-05-18T01:22:27.075Z,17.89
2023-05-18T01:22:58.519Z,17.88
2023-05-18T01:23:30.063Z,17.89
2023-05-18T01:24:01.527Z,17.88
2023-05-18T01:24:32.970Z,17.88
2023-05-18T01:25:04.402Z,17.88
2023-05-18T01:25:35.844Z,17.87
2023-05-18T01:26:07.282Z,17.88
2023-05-18T01:26:38.716Z,17.87
2023-05-18T01:27:10.147Z,17.86
2023-05-18T01:27:41.610Z,17.85
2023-05-18T01:28:13.081Z,17.86
2023-05-18T01:28:44.516Z,17.85
2023-05-18T01:29:15.954Z,17.84
2023-05-18T01:29:47.397Z,17.83
2023-05-18T01:30:18.827Z,17.84
2023-05-18T01:30:50.331Z,17.85
2023-05-18T01:31:21.824Z,17.84
2023-05-18T01:31:53.355Z,17.85
2023-05-18T01:32:24.859Z,17.84
2023-05-18T01:32:56.360Z,17.84
2023-05-18T01:33:27.862Z,17.83
2023-05-18T01:33:59.288Z,17.82
2023-05-18T01:34:30.748Z,17.82
2023-05-18T01:35:02.200Z,17.84
2023-05-18T01:35:33.652Z,17.83
2023-05-18T01:36:05.103Z,17.82
2023-05-18T01:36:36.547Z,17.81
2023-05-18T01:37:07.986Z,17.82
2023-05-18T01:37:39.432Z,17.82
2023-05-18T01:38:10.891Z,17.82
2023-05-18T01:38:44.214Z,17.82
2023-05-18T01:39:15.930Z,17.82
2023-05-18T01:39:47.372Z,17.82
2023-05-18T01:40:18.822Z,17.81
2023-05-18T01:40:50.271Z,17.81
2023-05-18T01:41:21.713Z,17.82
2023-05-18T01:41:53.160Z,17.81
2023-05-18T01:42:24.607Z,17.81
2023-05-18T01:42:56.055Z,17.80
2023-05-18T01:43:27.546Z,17.80
2023-05-18T01:43:58.986Z,17.79
2023-05-18T01:44:30.430Z,17.77
2023-05-18T01:45:01.870Z,17.76
2023-05-18T01:45:33.330Z,17.78
2023-05-18T01:46:04.846Z,17.77
2023-05-18T01:46:36.412Z,17.77
2023-05-18T01:47:07.894Z,17.75
2023-05-18T01:47:39.410Z,17.76
2023-05-18T01:48:10.997Z,17.75
2023-05-18T01:48:42.517Z,17.76
2023-05-18T01:49:13.975Z,17.76
2023-05-18T01:49:45.428Z,17.75
2023-05-18T01:50:16.862Z,17.75
2023-05-18T01:50:48.302Z,17.74
2023-05-18T01:51:19.749Z,17.73
2023-05-18T01:51:51.242Z,17.74
2023-05-18T01:52:22.676Z,17.72
2023-05-18T01:52:54.122Z,17.73
2023-05-18T01:53:25.564Z,17.71
2023-05-18T01:53:57.034Z,17.72
2023-05-18T01:54:28.472Z,17.73
2023-05-18T01:54:59.915Z,17.72
2023-05-18T01:55:31.634Z,17.71
2023-05-18T01:56:03.259Z,17.72
2023-05-18T01:56:34.703Z,17.71
2023-05-18T01:57:06.629Z,17.70
2023-05-18T01:57:38.095Z,17.70
2023-05-18T01:58:09.569Z,17.71
2023-05-18T01:58:41.020Z,17.70
2023-05-18T01:59:12.555Z,17.69
2023-05-18T01:59:43.995Z,17.71
2023-05-18T02:00:15.430Z,17.69
2023-05-18T02:00:46.867Z,17.70
2023-05-18T02:01:18.306Z,17.69
2023-05-18T02:01:49.840Z,17.71
2023-05-18T02:02:21.409Z,17.70
2023-05-18T02:02:53.094Z,17.69
2023-05-18T02:03:24.749Z,17.68
2023-05-18T02:03:56.326Z,17.68
2023-05-18T02:04:27.861Z,17.67
2023-05-18T02:04:59.302Z,17.67
2023-05-18T02:05:30.908Z,17.67
2023-05-18T02:06:02.548Z,17.68
2023-05-18T02:06:34.003Z,17.68
2023-05-18T02:07:05.460Z,17.67
2023-05-18T02:07:36.903Z,17.68
2023-05-18T02:08:08.349Z,17.67
2023-05-18T02:08:39.779Z,17.68
2023-05-18T02:09:11.223Z,17.69
2023-05-18T02:09:42.684Z,17.69
2023-05-18T02:10:14.125Z,17.68
2023-05-18T02:10:45.570Z,17.68
2023-05-18T02:11:17.000Z,17.67
2023-05-18T02:11:48.439Z,17.67
2023-05-18T02:12:19.881Z,17.68
2023-05-18T02:12:51.418Z,17.66
2023-05-18T02:13:22.892Z,17.67
2023-05-18T02:13:54.361Z,17.65
2023-05-18T02:14:25.824Z,17.67
2023-05-18T02:14:57.260Z,17.66
2023-05-18T02:15:29.155Z,17.67
2023-05-18T02:16:00.809Z,17.66
2023-05-18T02:16:32.363Z,17.66
2023-05-18T02:17:03.861Z,17.65
2023-05-18T02:17:35.326Z,17.64
2023-05-18T02:18:06.837Z,17.64
2023-05-18T02:18:38.306Z,17.64
2023-05-18T02:19:09.811Z,17.64
2023-05-18T02:19:41.281Z,17.63
2023-05-18T02:20:12.721Z,17.65
2023-05-18T02:20:44.188Z,17.62
2023-05-18T02:21:15.621Z,17.62
2023-05-18T02:21:47.062Z,17.62
2023-05-18T02:22:18.490Z,17.62
2023-05-18T02:22:50.444Z,17.60
2023-05-18T02:23:21.879Z,17.61
2023-05-18T02:23:53.309Z,17.60
2023-05-18T02:24:24.766Z,17.60
2023-05-18T02:24:56.213Z,17.57
2023-05-18T02:25:27.843Z,17.57
2023-05-18T02:25:59.337Z,17.57
2023-05-18T02:26:30.773Z,17.57
2023-05-18T02:27:02.251Z,17.57
2023-05-18T02:27:33.701Z,17.58
2023-05-18T02:28:05.158Z,17.57
2023-05-18T02:28:36.594Z,17.57
2023-05-18T02:29:08.017Z,17.59
2023-05-18T02:29:39.460Z,17.59
2023-05-18T02:30:11.951Z,17.60
2023-05-18T02:30:45.260Z,17.59
2023-05-18T02:31:16.703Z,17.58
2023-05-18T02:31:48.246Z,17.59
2023-05-18T02:32:19.717Z,17.58
2023-05-18T02:32:51.210Z,17.58
2023-05-18T02:33:22.672Z,17.58
2023-05-18T02:33:54.129Z,17.58
2023-05-18T02:34:25.578Z,17.57
2023-05-18T02:34:57.036Z,17.58
2023-05-18T02:35:28.631Z,17.58
2023-05-18T02:36:00.261Z,17.57
2023-05-18T02:36:31.719Z,17.57
2023-05-18T02:37:03.164Z,17.58
2023-05-18T02:37:34.614Z,17.58
2023-05-18T02:38:06.135Z,17.58
2023-05-18T02:38:37.586Z,17.57
2023-05-18T02:39:09.027Z,17.56
2023-05-18T02:39:40.466Z,17.57
2023-05-18T02:40:11.902Z,17.56
2023-05-18T02:40:43.378Z,17.57
2023-05-18T02:41:14.818Z,17.57
2023-05-18T02:41:46.324Z,17.56
2023-05-18T02:42:17.749Z,17.57
2023-05-18T02:42:49.194Z,17.56
2023-05-18T02:43:20.618Z,17.55
2023-05-18T02:43:52.073Z,17.56
2023-05-18T02:44:23.508Z,17.56
2023-05-18T02:44:54.940Z,17.56
2023-05-18T02:45:26.436Z,17.56
2023-05-18T02:45:57.945Z,17.56
2023-05-18T02:46:29.506Z,17.56
2023-05-18T02:47:01.052Z,17.55
2023-05-18T02:47:32.519Z,17.55
2023-05-18T02:48:03.989Z,17.55
2023-05-18T02:48:35.524Z,17.56
2023-05-18T02:49:06.980Z,17.56
2023-05-18T02:49:38.427Z,17.56
2023-05-18T02:50:09.866Z,17.57
2023-05-18T02:50:41.334Z,17.55
2023-05-18T02:51:12.773Z,17.55
2023-05-18T02:51:44.229Z,17.56
2023-05-18T02:52:15.678Z,17.56
2023-05-18T02:52:47.108Z,17.56
2023-05-18T02:53:18.537Z,17.56
2023-05-18T02:53:49.979Z,17.56
2023-05-18T02:54:21.414Z,17.56
2023-05-18T02:54:52.852Z,17.54
2023-05-18T02:55:24.298Z,17.55
2023-05-18T02:55:55.765Z,17.55
2023-05-18T02:56:27.208Z,17.54
2023-05-18T02:56:58.648Z,17.55
2023-05-18T02:57:30.083Z,17.54
2023-05-18T02:58:01.528Z,17.55
2023-05-18T02:58:32.986Z,17.55
2023-05-18T02:59:05.141Z,17.56
2023-05-18T02:59:38.134Z,17.54
2023-05-18T03:00:09.579Z,17.54
2023-05-18T03:00:41.004Z,17.54
2023-05-18T03:01:12.565Z,17.54
2023-05-18T03:01:44.272Z,17.55
2023-05-18T03:02:15.810Z,17.54
2023-05-18T03:02:47.335Z,17.54
2023-05-18T03:03:19.000Z,17.54
2023-05-18T03:03:50.564Z,17.54
2023-05-18T03:04:22.016Z,17.54
2023-05-18T03:04:53.506Z,17.53
2023-05-18T03:05:24.949Z,17.54
2023-05-18T03:05:56.394Z,17.55
2023-05-18T03:06:27.829Z,17.54
2023-05-18T03:06:59.335Z,17.53
2023-05-18T03:07:30.774Z,17.53
2023-05-18T03:08:02.217Z,17.53
2023-05-18T03:08:33.724Z,17.53
2023-05-18T03:09:05.173Z,17.52
2023-05-18T03:09:36.647Z,17.52
2023-05-18T03:10:08.115Z,17.52
2023-05-18T03:10:39.591Z,17.51
2023-05-18T03:11:11.069Z,17.52
2023-05-18T03:11:42.521Z,17.52
2023-05-18T03:12:13.964Z,17.52
2023-05-18T03:12:45.411Z,17.52
2023-05-18T03:13:16.849Z,17.48
2023-05-18T03:13:48.282Z,17.49
2023-05-18T03:14:19.718Z,17.49
2023-05-18T03:14:51.156Z,17.49
2023-05-18T03:15:22.593Z,17.49
2023-05-18T03:15:54.058Z,17.48
2023-05-18T03:16:25.530Z,17.48
2023-05-18T03:16:56.996Z,17.48
2023-05-18T03:17:28.492Z,17.49
2023-05-18T03:18:00.030Z,17.50
2023-05-18T03:18:31.532Z,17.48
2023-05-18T03:19:03.045Z,17.49
2023-05-18T03:19:34.529Z,17.48
2023-05-18T03:20:05.963Z,17.47
2023-05-18T03:20:37.394Z,17.47
2023-05-18T03:21:08.877Z,17.48
2023-05-18T03:21:40.317Z,17.48
2023-05-18T03:22:11.758Z,17.47
2023-05-18T03:22:43.205Z,17.47
2023-05-18T03:23:14.647Z,17.47
2023-05-18T03:23:46.095Z,17.47
2023-05-18T03:24:17.521Z,17.47
2023-05-18T03:24:48.965Z,17.47
2023-05-18T03:25:20.397Z,17.47
2023-05-18T03:25:51.827Z,17.47
2023-05-18T03:26:23.295Z,17.47
2023-05-18T03:26:54.738Z,17.47
2023-05-18T03:27:26.182Z,17.47
2023-05-18T03:27:57.622Z,17.47
2023-05-18T03:28:29.051Z,17.47
2023-05-18T03:29:00.490Z,17.47
2023-05-18T03:29:31.937Z,17.47
2023-05-18T03:30:03.401Z,17.47
2023-05-18T03:30:34.838Z,17.45
2023-05-18T03:31:06.396Z,17.47
2023-05-18T03:31:38.013Z,17.46
2023-05-18T03:32:09.582Z,17.46
2023-05-18T03:32:41.056Z,17.46
2023-05-18T03:33:12.641Z,17.46
2023-05-18T03:33:44.100Z,17.46
2023-05-18T03:34:15.537Z,17.46
2023-05-18T03:34:46.978Z,17.45
2023-05-18T03:35:18.418Z,17.46
2023-05-18T03:35:49.879Z,17.46
2023-05-18T03:36:21.351Z,17.45
2023-05-18T03:36:52.782Z,17.46
2023-05-18T03:37:24.212Z,17.45
2023-05-18T03:37:55.667Z,17.47
2023-05-18T03:38:27.133Z,17.46
2023-05-18T03:38:58.572Z,17.45
2023-05-18T03:39:30.018Z,17.45
2023-05-18T03:40:01.515Z,17.45
2023-05-18T03:40:32.959Z,17.43
2023-05-18T03:41:04.404Z,17.44
2023-05-18T03:41:35.896Z,17.43
2023-05-18T03:42:07.342Z,17.45
2023-05-18T03:42:38.787Z,17.45
2023-05-18T03:43:10.227Z,17.45
2023-05-18T03:43:41.662Z,17.45
2023-05-18T03:44:13.113Z,17.44
2023-05-18T03:44:44.554Z,17.43
2023-05-18T03:45:16.018Z,17.42
2023-05-18T03:45:47.500Z,17.43
2023-05-18T03:46:18.973Z,17.41
2023-05-18T03:46:50.534Z,17.42
2023-05-18T03:47:21.983Z,17.41
2023-05-18T03:47:53.520Z,17.41
2023-05-18T03:48:25.022Z,17.42
2023-05-18T03:48:56.460Z,17.42
2023-05-18T03:49:27.905Z,17.41
2023-05-18T03:49:59.356Z,17.41
2023-05-18T03:50:30.801Z,17.41
2023-05-18T03:51:02.270Z,17.41
2023-05-18T03:51:33.709Z,17.41
2023-05-18T03:52:05.155Z,17.41
2023-05-18T03:52:36.632Z,17.41
2023-05-18T03:53:08.067Z,17.41
2023-05-18T03:53:39.498Z,17.40
2023-05-18T03:54:10.937Z,17.39
2023-05-18T03:54:42.380Z,17.40
2023-05-18T03:55:13.865Z,17.40
2023-05-18T03:55:45.302Z,17.40
2023-05-18T03:56:16.753Z,17.39
2023-05-18T03:56:48.199Z,17.40
2023-05-18T03:57:19.638Z,17.38
2023-05-18T03:57:51.076Z,17.38
2023-05-18T03:58:22.528Z,17.39
2023-05-18T03:58:53.958Z,17.39
2023-05-18T03:59:25.401Z,17.40
2023-05-18T03:59:56.867Z,17.39
2023-05-18T04:00:28.342Z,17.39
2023-05-18T04:00:59.774Z,17.40
2023-05-18T04:01:31.244Z,17.38
2023-05-18T04:02:02.795Z,17.39
2023-05-18T04:02:34.424Z,17.39
2023-05-18T04:03:06.070Z,17.38
2023-05-18T04:03:37.738Z,17.38
2023-05-18T04:04:09.291Z,17.37
2023-05-18T04:04:40.761Z,17.38
2023-05-18T04:05:12.194Z,17.38
2023-05-18T04:05:43.660Z,17.38
2023-05-18T04:06:15.090Z,17.38
2023-05-18T04:06:46.512Z,17.36
2023-05-18T04:07:17.937Z,17.38
2023-05-18T04:07:49.375Z,17.38
2023-05-18T04:08:20.826Z,17.38
2023-05-18T04:08:52.258Z,17.37
2023-05-18T04:09:23.718Z,17.37
2023-05-18T04:09:55.170Z,17.37
2023-05-18T04:10:26.617Z,17.38
2023-05-18T04:10:58.112Z,17.38
2023-05-18T04:11:29.535Z,17.39
2023-05-18T04:12:00.961Z,17.38
2023-05-18T04:12:32.394Z,17.39
2023-05-18T04:13:03.851Z,17.39
2023-05-18T04:13:35.300Z,17.38
2023-05-18T04:14:06.729Z,17.38
2023-05-18T04:14:38.156Z,17.37
2023-05-18T04:15:09.596Z,17.37
2023-05-18T04:15:41.028Z,17.37
2023-05-18T04:16:12.565Z,17.37
2023-05-18T04:16:44.069Z,17.38
2023-05-18T04:17:15.550Z,17.37
2023-05-18T04:17:47.031Z,17.38
2023-05-18T04:18:18.483Z,17.37
2023-05-18T04:18:49.961Z,17.38
2023-05-18T04:19:21.487Z,17.37
2023-05-18T04:19:52.963Z,17.37
2023-05-18T04:20:24.408Z,17.38
2023-05-18T04:20:55.842Z,17.37
2023-05-18T04:21:27.294Z,17.38
2023-05-18T04:21:58.771Z,17.37
2023-05-18T04:22:30.202Z,17.37
2023-05-18T04:23:01.639Z,17.37
2023-05-18T04:23:33.101Z,17.38
2023-05-18T04:24:04.549Z,17.38
2023-05-18T04:24:35.986Z,17.37
2023-05-18T04:25:07.422Z,17.38
2023-05-18T04:25:38.862Z,17.37
2023-05-18T04:26:10.297Z,17.38
2023-05-18T04:26:41.747Z,17.38
2023-05-18T04:27:13.182Z,17.37
2023-05-18T04:27:44.631Z,17.38
2023-05-18T04:28:16.066Z,17.38
2023-05-18T04:28:47.523Z,17.37
2023-05-18T04:29:18.960Z,17.38
2023-05-18T04:29:50.417Z,17.38
2023-05-18T04:30:21.855Z,17.38
2023-05-18T04:30:53.298Z,17.39
2023-05-18T04:31:24.773Z,17.39
2023-05-18T04:31:56.264Z,17.38
2023-05-18T04:32:27.718Z,17.39
2023-05-18T04:32:59.214Z,17.38
2023-05-18T04:33:30.678Z,17.39
2023-05-18T04:34:02.135Z,17.38
2023-05-18T04:34:33.601Z,17.39
2023-05-18T04:35:05.040Z,17.37
2023-05-18T04:35:36.467Z,17.37
2023-05-18T04:36:07.916Z,17.37
2023-05-18T04:36:39.350Z,17.38
2023-05-18T04:37:10.782Z,17.38
2023-05-18T04:37:42.221Z,17.37
2023-05-18T04:38:13.696Z,17.38
2023-05-18T04:38:45.140Z,17.37
2023-05-18T04:39:16.568Z,17.38
2023-05-18T04:39:48.011Z,17.38
2023-05-18T04:40:19.486Z,17.38
2023-05-18T04:40:50.944Z,17.37
2023-05-18T04:41:22.376Z,17.39
2023-05-18T04:41:53.833Z,17.39
2023-05-18T04:42:25.275Z,17.39
2023-05-18T04:42:56.727Z,17.38
2023-05-18T04:43:28.185Z,17.38
2023-05-18T04:43:59.638Z,17.39
2023-05-18T04:44:31.093Z,17.38
2023-05-18T04:45:02.566Z,17.38
2023-05-18T04:45:34.164Z,17.38
2023-05-18T04:46:05.907Z,17.39
2023-05-18T04:46:37.351Z,17.39
2023-05-18T04:47:08.847Z,17.38
2023-05-18T04:47:40.308Z,17.38
2023-05-18T04:48:11.773Z,17.37
2023-05-18T04:48:43.272Z,17.37
2023-05-18T04:49:14.704Z,17.37
2023-05-18T04:49:46.249Z,17.37
2023-05-18T04:50:17.686Z,17.37
2023-05-18T04:50:49.132Z,17.37
2023-05-18T04:51:20.569Z,17.37
2023-05-18T04:51:51.998Z,17.37
2023-05-18T04:52:23.421Z,17.36
2023-05-18T04:52:54.864Z,17.38
2023-05-18T04:53:26.409Z,17.37
2023-05-18T04:53:57.854Z,17.38
2023-05-18T04:54:29.295Z,17.38
2023-05-18T04:55:00.751Z,17.39
2023-05-18T04:55:32.298Z,17.38
2023-05-18T04:56:03.850Z,17.37
2023-05-18T04:56:35.275Z,17.37
2023-05-18T04:57:06.743Z,17.37
2023-05-18T04:57:38.177Z,17.37
2023-05-18T04:58:09.617Z,17.37
2023-05-18T04:58:41.052Z,17.37
2023-05-18T04:59:12.481Z,17.37
2023-05-18T04:59:43.910Z,17.38
2023-05-18T05:00:15.372Z,17.38
2023-05-18T05:00:46.813Z,17.36
2023-05-18T05:01:18.326Z,17.36
2023-05-18T05:01:49.906Z,17.37
2023-05-18T05:02:21.513Z,17.38
2023-05-18T05:02:53.046Z,17.37
2023-05-18T05:03:24.623Z,17.38
2023-05-18T05:03:58.158Z,17.38
2023-05-18T05:04:31.079Z,17.37
2023-05-18T05:05:02.548Z,17.37
2023-05-18T05:05:33.979Z,17.37
2023-05-18T05:06:05.417Z,17.38
2023-05-18T05:06:36.860Z,17.38
2023-05-18T05:07:08.331Z,17.37
2023-05-18T05:07:39.806Z,17.37
2023-05-18T05:08:11.319Z,17.38
2023-05-18T05:08:42.757Z,17.37
2023-05-18T05:09:14.206Z,17.37
2023-05-18T05:09:45.664Z,17.38
2023-05-18T05:10:17.129Z,17.37
2023-05-18T05:10:48.574Z,17.38
2023-05-18T05:11:20.044Z,17.38
2023-05-18T05:11:51.469Z,17.39
2023-05-18T05:12:22.899Z,17.38
2023-05-18T05:12:54.333Z,17.38
2023-05-18T05:13:25.770Z,17.37
2023-05-18T05:13:57.206Z,17.39
2023-05-18T05:14:28.631Z,17.38
2023-05-18T05:15:00.070Z,17.38
2023-05-18T05:15:31.742Z,17.38
2023-05-18T05:16:03.457Z,17.39
2023-05-18T05:16:35.058Z,17.39
2023-05-18T05:17:06.546Z,17.38
2023-05-18T05:17:37.984Z,17.39
2023-05-18T05:18:09.509Z,17.40
2023-05-18T05:18:41.041Z,17.40
2023-05-18T05:19:12.676Z,17.39
2023-05-18T05:19:44.230Z,17.40
2023-05-18T05:20:15.695Z,17.40
2023-05-18T05:20:47.160Z,17.40
2023-05-18T05:21:18.625Z,17.40
2023-05-18T05:21:50.066Z,17.40
2023-05-18T05:22:21.511Z,17.40
2023-05-18T05:22:53.038Z,17.40
2023-05-18T05:23:24.543Z,17.41
2023-05-18T05:23:56.000Z,17.40
2023-05-18T05:24:27.437Z,17.41
2023-05-18T05:24:58.875Z,17.41
2023-05-18T05:25:30.561Z,17.41
2023-05-18T05:26:02.237Z,17.41
2023-05-18T05:26:33.712Z,17.41
2023-05-18T05:27:05.149Z,17.42
2023-05-18T05:27:36.583Z,17.42
2023-05-18T05:28:08.046Z,17.41
2023-05-18T05:28:39.499Z,17.42
2023-05-18T05:29:10.933Z,17.43
2023-05-18T05:29:42.363Z,17.42
2023-05-18T05:30:13.828Z,17.43
2023-05-18T05:30:45.274Z,17.43
2023-05-18T05:31:16.756Z,17.44
2023-05-18T05:31:48.301Z,17.43
2023-05-18T05:32:19.760Z,17.44
2023-05-18T05:32:51.248Z,17.43
2023-05-18T05:33:22.727Z,17.43
2023-05-18T05:33:54.172Z,17.44
2023-05-18T05:34:25.622Z,17.44
2023-05-18T05:34:57.066Z,17.45
2023-05-18T05:35:29.571Z,17.44
2023-05-18T05:36:02.916Z,17.45
2023-05-18T05:36:34.569Z,17.45
2023-05-18T05:37:06.043Z,17.45
2023-05-18T05:37:37.500Z,17.45
2023-05-18T05:38:08.966Z,17.45
2023-05-18T05:38:40.416Z,17.46
2023-05-18T05:39:11.862Z,17.45
2023-05-18T05:39:43.311Z,17.46
2023-05-18T05:40:14.775Z,17.46
2023-05-18T05:40:46.230Z,17.45
2023-05-18T05:41:17.707Z,17.46
2023-05-18T05:41:49.144Z,17.47
2023-05-18T05:42:20.588Z,17.47
2023-05-18T05:42:52.026Z,17.47
2023-05-18T05:43:23.455Z,17.48
2023-05-18T05:43:54.899Z,17.48
2023-05-18T05:44:26.347Z,17.48
2023-05-18T05:44:57.779Z,17.48
2023-05-18T05:45:29.359Z,17.48
2023-05-18T05:46:00.904Z,17.48
2023-05-18T05:46:32.417Z,17.49
2023-05-18T05:47:03.945Z,17.49
2023-05-18T05:47:35.449Z,17.49
2023-05-18T05:48:06.965Z,17.48
2023-05-18T05:48:38.449Z,17.46
2023-05-18T05:49:09.894Z,17.47
2023-05-18T05:49:41.337Z,17.48
2023-05-18T05:50:12.773Z,17.48
2023-05-18T05:50:44.225Z,17.48
2023-05-18T05:51:15.682Z,17.49
2023-05-18T05:51:47.146Z,17.49
2023-05-18T05:52:18.600Z,17.50
2023-05-18T05:52:50.069Z,17.50
2023-05-18T05:53:21.507Z,17.51
2023-05-18T05:53:52.952Z,17.49
2023-05-18T05:54:24.403Z,17.48
2023-05-18T05:54:55.859Z,17.48
2023-05-18T05:55:27.306Z,17.49
2023-05-18T05:55:58.761Z,17.50
2023-05-18T05:56:30.196Z,17.51
2023-05-18T05:57:01.650Z,17.51
2023-05-18T05:57:33.107Z,17.51
2023-05-18T05:58:04.548Z,17.52
2023-05-18T05:58:35.995Z,17.52
2023-05-18T05:59:07.426Z,17.52
2023-05-18T05:59:38.859Z,17.52
2023-05-18T06:00:10.280Z,17.52
2023-05-18T06:00:41.722Z,17.52
2023-05-18T06:01:13.220Z,17.52
2023-05-18T06:01:44.709Z,17.53
2023-05-18T06:02:16.216Z,17.53
2023-05-18T06:02:47.767Z,17.53
2023-05-18T06:03:19.281Z,17.54
2023-05-18T06:03:50.792Z,17.54
2023-05-18T06:04:22.367Z,17.53
2023-05-18T06:04:53.975Z,17.54
2023-05-18T06:05:25.411Z,17.55
2023-05-18T06:05:56.846Z,17.55
2023-05-18T06:06:28.314Z,17.54
2023-05-18T06:06:59.755Z,17.55
2023-05-18T06:07:31.232Z,17.56
2023-05-18T06:08:02.681Z,17.56
2023-05-18T06:08:34.115Z,17.57
2023-05-18T06:09:05.546Z,17.57
2023-05-18T06:09:36.986Z,17.58
2023-05-18T06:10:08.461Z,17.57
2023-05-18T06:10:39.911Z,17.58
2023-05-18T06:11:11.649Z,17.57
2023-05-18T06:11:43.183Z,17.58
2023-05-18T06:12:14.632Z,17.59
2023-05-18T06:12:46.088Z,17.61
2023-05-18T06:13:17.529Z,17.60
2023-05-18T06:13:48.987Z,17.60
2023-05-18T06:14:20.416Z,17.60
2023-05-18T06:14:51.854Z,17.61
2023-05-18T06:15:23.288Z,17.61
2023-05-18T06:15:54.714Z,17.61
2023-05-18T06:16:26.180Z,17.62
2023-05-18T06:16:57.762Z,17.63
2023-05-18T06:17:29.339Z,17.62
2023-05-18T06:18:00.839Z,17.63
2023-05-18T06:18:32.326Z,17.62
2023-05-18T06:19:03.806Z,17.63
2023-05-18T06:19:35.254Z,17.64
2023-05-18T06:20:06.693Z,17.65
2023-05-18T06:20:38.139Z,17.65
2023-05-18T06:21:09.577Z,17.66
2023-05-18T06:21:41.012Z,17.66
2023-05-18T06:22:12.497Z,17.65
2023-05-18T06:22:43.936Z,17.67
2023-05-18T06:23:15.363Z,17.66
2023-05-18T06:23:46.853Z,17.67
2023-05-18T06:24:18.290Z,17.67
2023-05-18T06:24:49.768Z,17.67
2023-05-18T06:25:21.231Z,17.67
2023-05-18T06:25:52.666Z,17.68
2023-05-18T06:26:24.123Z,17.67
2023-05-18T06:26:55.638Z,17.68
2023-05-18T06:27:27.114Z,17.69
2023-05-18T06:27:58.550Z,17.69
2023-05-18T06:28:29.991Z,17.69
2023-05-18T06:29:01.436Z,17.70
2023-05-18T06:29:32.884Z,17.70
2023-05-18T06:30:04.347Z,17.70
2023-05-18T06:30:35.783Z,17.70
2023-05-18T06:31:07.222Z,17.71
2023-05-18T06:31:38.724Z,17.71
2023-05-18T06:32:10.247Z,17.72
2023-05-18T06:32:41.737Z,17.73
2023-05-18T06:33:13.205Z,17.72
2023-05-18T06:33:44.672Z,17.72
2023-05-18T06:34:16.131Z,17.73
2023-05-18T06:34:47.584Z,17.72
2023-05-18T06:35:19.033Z,17.74
2023-05-18T06:35:50.469Z,17.74
2023-05-18T06:36:21.908Z,17.74
2023-05-18T06:36:53.376Z,17.74
2023-05-18T06:37:24.832Z,17.75
2023-05-18T06:37:56.298Z,17.75
2023-05-18T06:38:27.724Z,17.76
2023-05-18T06:38:59.168Z,17.76
2023-05-18T06:39:30.610Z,17.75
2023-05-18T06:40:02.092Z,17.76
2023-05-18T06:40:33.526Z,17.77
2023-05-18T06:41:04.976Z,17.77
2023-05-18T06:41:36.425Z,17.77
2023-05-18T06:42:07.857Z,17.78
2023-05-18T06:42:39.311Z,17.78
2023-05-18T06:43:10.759Z,17.79
2023-05-18T06:43:42.208Z,17.79
2023-05-18T06:44:13.653Z,17.80
2023-05-18T06:44:45.100Z,17.81
2023-05-18T06:45:16.541Z,17.81